Time;durP1;ratioP1;P1;durP2;ratioP2;P2;SDS_P1;SDS_P2;PMS_P1;PMS_P2;Temp;Humidity;BMP_temperature;BMP_pressure;BME280_temperature;BME280_humidity;BME280_pressure;Samples;Min_cycle;Max_cycle;Signal;HPM_P1;HPM_P2
2021/11/08 00:01:10;;;;;;;72.53;42.60;;;11.10;99.90;;;;;;5106042;28;20416;-94
2021/11/08 00:03:40;;;;;;;76.53;39.55;;;11.10;99.90;;;;;;5115971;28;20428;-93
2021/11/08 00:06:06;;;;;;;73.03;39.67;;;11.10;99.90;;;;;;5105408;28;20640;-89
2021/11/08 00:08:34;;;;;;;78.47;46.57;;;11.10;99.90;;;;;;5100333;28;20256;-94
2021/11/08 00:11:00;;;;;;;97.20;48.67;;;11.10;99.90;;;;;;5098006;28;20176;-93
2021/11/08 00:13:26;;;;;;;85.65;45.97;;;11.10;99.90;;;;;;5097708;28;20332;-88
2021/11/08 00:20:52;;;;;;;72.07;40.83;;;11.20;99.90;;;;;;5115932;28;20176;-89
2021/11/08 00:23:18;;;;;;;71.10;40.22;;;11.20;99.90;;;;;;5097195;28;20413;-89
2021/11/08 00:25:44;;;;;;;117.68;54.75;;;11.20;99.90;;;;;;5097546;28;20651;-90
2021/11/08 00:28:11;;;;;;;87.40;47.10;;;11.20;99.90;;;;;;5098119;28;20192;-89
2021/11/08 00:30:38;;;;;;;92.25;48.35;;;11.10;99.90;;;;;;5105020;28;20199;-89
2021/11/08 00:33:08;;;;;;;82.03;43.63;;;11.20;99.90;;;;;;5097058;28;20561;-89
2021/11/08 00:35:37;;;;;;;73.93;42.75;;;11.20;99.90;;;;;;5097295;28;20207;-95
2021/11/08 00:38:05;;;;;;;81.07;43.63;;;11.20;99.90;;;;;;5115309;28;20675;-89
2021/11/08 00:40:31;;;;;;;70.63;40.85;;;11.20;99.90;;;;;;5097338;28;20545;-89
2021/11/08 00:42:57;;;;;;;77.00;40.92;;;11.20;99.90;;;;;;5097130;28;20200;-94
2021/11/08 00:45:23;;;;;;;74.17;42.53;;;11.20;99.90;;;;;;5098308;28;20184;-94
2021/11/08 00:47:50;;;;;;;82.32;45.85;;;11.30;99.90;;;;;;5119915;28;20404;-94
2021/11/08 00:50:17;;;;;;;78.93;43.97;;;11.30;99.90;;;;;;5097810;28;20172;-89
2021/11/08 00:52:43;;;;;;;73.65;41.13;;;11.30;99.90;;;;;;5102729;28;20198;-94
2021/11/08 00:55:09;;;;;;;70.55;43.65;;;11.30;99.90;;;;;;5131806;28;20199;-93
2021/11/08 00:57:37;;;;;;;75.85;41.75;;;11.30;99.90;;;;;;5097870;28;20548;-94
2021/11/08 01:00:09;;;;;;;70.00;42.47;;;11.30;99.90;;;;;;5101580;28;20175;-94
2021/11/08 01:02:35;;;;;;;75.88;42.05;;;11.30;99.90;;;;;;5105812;28;20180;-90
2021/11/08 01:05:04;;;;;;;71.97;41.03;;;11.30;99.90;;;;;;5101653;28;20176;-88
2021/11/08 01:07:30;;;;;;;74.97;41.25;;;11.30;99.90;;;;;;5097613;28;20327;-89
2021/11/08 01:09:56;;;;;;;77.57;42.00;;;11.30;99.90;;;;;;5097650;28;20672;-93
2021/11/08 01:12:25;;;;;;;72.45;43.28;;;11.30;99.90;;;;;;5097106;28;20535;-88
2021/11/08 01:14:53;;;;;;;71.55;41.47;;;11.30;99.90;;;;;;5096392;28;20636;-89
2021/11/08 01:17:20;;;;;;;67.15;39.38;;;11.30;99.90;;;;;;5116125;28;20515;-90
2021/11/08 01:19:47;;;;;;;66.88;39.22;;;11.30;99.90;;;;;;5098367;28;20191;-89
2021/11/08 01:22:17;;;;;;;72.65;42.90;;;11.30;99.90;;;;;;5102419;28;20241;-93
2021/11/08 01:24:55;;;;;;;72.68;42.45;;;11.30;99.90;;;;;;5097598;28;20191;-95
2021/11/08 01:27:24;;;;;;;75.43;42.20;;;11.30;99.90;;;;;;5103949;28;20229;-95
2021/11/08 01:29:51;;;;;;;72.85;42.17;;;11.30;99.90;;;;;;5096414;28;20199;-94
2021/11/08 01:32:17;;;;;;;72.78;42.25;;;11.30;99.90;;;;;;5097148;28;20709;-89
2021/11/08 01:34:43;;;;;;;70.60;40.92;;;11.30;99.90;;;;;;5100436;28;20215;-90
2021/11/08 01:37:10;;;;;;;70.17;42.57;;;11.30;99.90;;;;;;5105829;28;20659;-94
2021/11/08 01:39:38;;;;;;;68.40;41.92;;;11.30;99.90;;;;;;5102576;28;20191;-93
2021/11/08 01:42:09;;;;;;;82.45;46.88;;;11.30;99.90;;;;;;5100767;28;20179;-94
2021/11/08 01:44:36;;;;;;;80.10;43.60;;;11.30;99.90;;;;;;5100612;28;20202;-95
2021/11/08 01:47:02;;;;;;;70.00;43.47;;;11.30;99.90;;;;;;5119178;28;20608;-95
2021/11/08 01:49:29;;;;;;;79.22;43.65;;;11.30;99.90;;;;;;5100607;28;20230;-89
2021/11/08 01:51:57;;;;;;;84.07;44.92;;;11.30;99.90;;;;;;5100811;28;20183;-95
2021/11/08 01:54:24;;;;;;;71.53;41.80;;;11.30;99.90;;;;;;5100760;28;20203;-89
2021/11/08 01:56:52;;;;;;;77.22;43.58;;;11.30;99.90;;;;;;5106952;28;20183;-94
2021/11/08 01:59:19;;;;;;;59.90;38.92;;;11.30;99.90;;;;;;5100168;28;20196;-89
2021/11/08 02:01:46;;;;;;;63.80;40.53;;;11.30;99.90;;;;;;5100131;28;20175;-89
2021/11/08 02:04:11;;;;;;;59.42;37.22;;;11.30;99.90;;;;;;5100015;28;20227;-89
2021/11/08 02:06:38;;;;;;;70.73;40.07;;;11.30;99.90;;;;;;5099915;28;20231;-94
2021/11/08 02:09:05;;;;;;;72.63;39.97;;;11.30;99.90;;;;;;5100252;28;20204;-94
2021/11/08 02:11:33;;;;;;;67.65;39.95;;;11.30;99.90;;;;;;5108378;28;20183;-89
2021/11/08 02:13:59;;;;;;;65.97;41.35;;;11.30;99.90;;;;;;5101762;28;20565;-95
2021/11/08 02:16:25;;;;;;;58.95;37.20;;;11.30;99.90;;;;;;5100631;28;20239;-94
2021/11/08 02:18:52;;;;;;;60.47;38.65;;;11.30;99.90;;;;;;5120543;28;20547;-94
2021/11/08 02:21:18;;;;;;;68.43;39.38;;;11.30;99.90;;;;;;5100402;28;20543;-89
2021/11/08 02:23:48;;;;;;;57.00;36.70;;;11.30;99.90;;;;;;5101444;28;20196;-89
2021/11/08 02:26:16;;;;;;;60.35;39.88;;;11.30;99.90;;;;;;5109901;28;20171;-89
2021/11/08 02:28:44;;;;;;;62.22;37.70;;;11.30;99.90;;;;;;5099875;28;20199;-89
2021/11/08 02:31:17;;;;;;;58.92;38.88;;;11.30;99.90;;;;;;5099623;28;20688;-95
2021/11/08 02:33:48;;;;;;;66.18;37.35;;;11.30;99.90;;;;;;5099323;28;20759;-94
2021/11/08 02:36:14;;;;;;;55.97;35.08;;;11.30;99.90;;;;;;5099526;28;20262;-95
2021/11/08 02:38:46;;;;;;;58.92;38.35;;;11.30;99.90;;;;;;5099587;28;20195;-92
2021/11/08 02:41:13;;;;;;;62.88;38.65;;;11.20;99.90;;;;;;5117686;28;20183;-92
2021/11/08 02:43:39;;;;;;;59.58;37.35;;;11.20;99.90;;;;;;5099651;28;20195;-89
2021/11/08 02:46:13;;;;;;;60.28;38.28;;;11.20;99.90;;;;;;5098171;28;20632;-89
2021/11/08 02:48:42;;;;;;;53.10;35.08;;;11.20;99.90;;;;;;5099883;28;20207;-95
2021/11/08 02:53:36;;;;;;;56.78;35.60;;;11.20;99.90;;;;;;5125030;28;20675;-89
2021/11/08 02:56:04;;;;;;;55.08;36.47;;;11.20;99.90;;;;;;5105277;28;20223;-95
2021/11/08 02:58:30;;;;;;;48.35;33.38;;;11.20;99.90;;;;;;5099687;28;20191;-94
2021/11/08 03:00:56;;;;;;;55.10;34.47;;;11.20;99.90;;;;;;5117444;28;20221;-94
2021/11/08 03:03:29;;;;;;;54.28;34.40;;;11.20;99.90;;;;;;5098934;28;20192;-89
2021/11/08 03:06:02;;;;;;;56.13;33.88;;;11.20;99.90;;;;;;5099403;28;20230;-89
2021/11/08 03:08:28;;;;;;;54.78;35.95;;;11.20;99.90;;;;;;5098910;28;20215;-89
2021/11/08 03:10:56;;;;;;;57.40;34.20;;;11.20;99.90;;;;;;5099240;28;20179;-95
2021/11/08 03:13:23;;;;;;;48.38;31.77;;;11.20;99.90;;;;;;5099145;28;20434;-88
2021/11/08 03:15:57;;;;;;;49.85;34.60;;;11.20;99.90;;;;;;5116654;28;20211;-95
2021/11/08 03:18:29;;;;;;;52.47;33.47;;;11.20;99.90;;;;;;5098805;28;20210;-94
2021/11/08 03:20:57;;;;;;;58.85;34.83;;;11.20;99.90;;;;;;5098916;28;20179;-95
2021/11/08 03:23:23;;;;;;;58.35;34.80;;;11.20;99.90;;;;;;5103874;28;20200;-95
2021/11/08 03:26:00;;;;;;;53.97;32.70;;;11.20;99.90;;;;;;5110435;28;20194;-89
2021/11/08 03:28:25;;;;;;;50.10;32.58;;;11.20;99.90;;;;;;5108650;28;20224;-95
2021/11/08 03:30:51;;;;;;;51.83;33.07;;;11.20;99.90;;;;;;5099311;28;20176;-94
2021/11/08 03:33:18;;;;;;;46.90;31.03;;;11.20;99.90;;;;;;5119092;28;20241;-88
2021/11/08 03:35:44;;;;;;;47.97;31.88;;;11.10;99.90;;;;;;5104731;28;20442;-95
2021/11/08 03:38:13;;;;;;;53.30;32.58;;;11.20;99.90;;;;;;5100552;28;20200;-94
2021/11/08 03:40:42;;;;;;;51.47;33.05;;;11.20;99.90;;;;;;5098644;28;20183;-89
2021/11/08 03:43:12;;;;;;;81.45;43.90;;;11.20;99.90;;;;;;5102292;28;20200;-94
2021/11/08 03:45:38;;;;;;;92.15;44.67;;;11.10;99.90;;;;;;5110012;28;20156;-91
2021/11/08 03:48:07;;;;;;;60.83;36.85;;;11.10;99.90;;;;;;5125026;28;20217;-93
2021/11/08 03:50:34;;;;;;;55.45;33.10;;;11.10;99.90;;;;;;5099215;28;20172;-88
2021/11/08 03:53:00;;;;;;;50.58;31.63;;;11.10;99.90;;;;;;5107729;28;20566;-89
2021/11/08 03:55:26;;;;;;;48.00;30.27;;;11.10;99.90;;;;;;5097913;28;20290;-94
2021/11/08 03:57:53;;;;;;;42.17;30.20;;;11.10;99.90;;;;;;5097467;28;20426;-88
2021/11/08 04:00:21;;;;;;;46.10;31.15;;;11.10;99.90;;;;;;5097848;28;20199;-94
2021/11/08 04:02:50;;;;;;;53.53;31.10;;;11.10;99.90;;;;;;5098676;28;20324;-89
2021/11/08 04:05:18;;;;;;;48.55;31.90;;;11.10;99.90;;;;;;5101736;28;20215;-95
2021/11/08 04:07:47;;;;;;;45.78;30.42;;;11.10;99.90;;;;;;5115924;28;20228;-94
2021/11/08 04:10:17;;;;;;;45.72;29.85;;;11.10;99.90;;;;;;5097866;28;20183;-94
2021/11/08 04:12:44;;;;;;;43.80;30.27;;;11.10;99.90;;;;;;5097981;28;20195;-94
2021/11/08 04:15:13;;;;;;;47.90;31.17;;;11.10;99.90;;;;;;5097819;28;20264;-89
2021/11/08 04:17:45;;;;;;;42.65;27.60;;;11.10;99.90;;;;;;5109463;28;20195;-95
2021/11/08 04:20:23;;;;;;;49.15;28.90;;;11.10;99.90;;;;;;5104682;28;20201;-89
2021/11/08 04:22:52;;;;;;;46.00;29.85;;;11.10;99.90;;;;;;5115479;28;20642;-95
2021/11/08 04:25:22;;;;;;;43.50;30.00;;;11.10;99.90;;;;;;5115556;28;20593;-89
2021/11/08 04:27:48;;;;;;;44.85;28.85;;;11.00;99.90;;;;;;5097570;28;20183;-94
2021/11/08 04:30:14;;;;;;;51.35;29.90;;;11.00;99.90;;;;;;5098341;28;20207;-93
2021/11/08 04:32:51;;;;;;;47.40;28.10;;;11.00;99.90;;;;;;5119224;28;20171;-89
2021/11/08 04:35:24;;;;;;;41.05;26.55;;;11.00;99.90;;;;;;5118161;28;20456;-89
2021/11/08 04:38:51;;;;;;;40.60;27.38;;;11.00;99.90;;;;;;5091397;28;20631;-68
2021/11/08 04:51:35;;;;;;;52.63;28.30;;;10.90;99.90;;;;;;5091247;28;20204;-69
2021/11/08 05:30:07;;;;;;;37.28;25.33;;;10.90;99.90;;;;;;5090716;28;20605;-70
2021/11/08 05:32:16;;;;;;;36.20;24.52;;;10.90;99.90;;;;;;5077022;28;20204;-71
2021/11/08 05:34:42;;;;;;;42.88;24.15;;;10.90;99.90;;;;;;5071750;28;20196;-70
2021/11/08 05:37:16;;;;;;;37.30;24.98;;;10.90;99.90;;;;;;5068020;28;20290;-70
2021/11/08 05:39:56;;;;;;;35.00;23.13;;;10.90;99.90;;;;;;5068740;28;20196;-70
2021/11/08 05:42:24;;;;;;;37.33;24.27;;;10.90;99.90;;;;;;5068560;28;20643;-71
2021/11/08 05:44:57;;;;;;;34.45;23.77;;;10.80;99.90;;;;;;5069580;28;20189;-70
2021/11/08 05:47:29;;;;;;;35.97;24.23;;;10.80;99.90;;;;;;5065614;28;20193;-71
2021/11/08 05:49:59;;;;;;;32.75;22.02;;;10.80;99.90;;;;;;5054551;28;20194;-71
2021/11/08 05:52:28;;;;;;;33.55;23.45;;;10.80;99.90;;;;;;5054971;28;20193;-71
2021/11/08 05:54:54;;;;;;;32.60;22.00;;;10.80;99.90;;;;;;5055134;28;20205;-71
2021/11/08 06:49:23;;;;;;;39.97;30.10;;;10.60;99.90;;;;;;5033126;28;20232;-68
2021/11/08 06:51:56;;;;;;;31.42;21.40;;;10.60;99.90;;;;;;5043624;28;20217;-68
2021/11/08 06:54:33;;;;;;;29.77;20.05;;;10.60;99.90;;;;;;5045047;28;20279;-68
2021/11/08 06:57:10;;;;;;;28.00;19.70;;;10.60;99.90;;;;;;5051486;28;20213;-70
2021/11/08 06:59:36;;;;;;;59.22;40.15;;;10.60;99.90;;;;;;5050776;28;20254;-69
2021/11/08 07:02:07;;;;;;;152.80;96.25;;;10.60;99.90;;;;;;5036625;28;20187;-70
2021/11/08 07:05:37;;;;;;;89.80;59.70;;;10.50;99.90;;;;;;5037121;28;20200;-70
2021/11/08 07:08:04;;;;;;;29.35;23.00;;;10.60;99.90;;;;;;5046175;28;20489;-70
2021/11/08 07:10:32;;;;;;;29.42;19.45;;;10.60;99.90;;;;;;5031033;28;20213;-69
2021/11/08 07:13:02;;;;;;;26.92;18.42;;;10.60;99.90;;;;;;5030143;28;20786;-70
2021/11/08 07:15:29;;;;;;;26.92;19.45;;;10.60;99.90;;;;;;5035322;28;20612;-69
2021/11/08 07:17:56;;;;;;;32.65;21.80;;;10.50;99.90;;;;;;5030591;28;20771;-69
2021/11/08 07:20:37;;;;;;;37.60;23.80;;;10.50;99.90;;;;;;5043049;28;20784;-70
2021/11/08 07:23:03;;;;;;;31.67;21.77;;;10.50;99.90;;;;;;5016607;28;20239;-69
2021/11/08 07:25:35;;;;;;;28.17;19.20;;;10.50;99.90;;;;;;5030581;28;20225;-69
2021/11/08 07:28:04;;;;;;;26.95;17.77;;;10.50;99.90;;;;;;5047146;28;20197;-69
2021/11/08 07:30:31;;;;;;;26.88;19.45;;;10.50;99.90;;;;;;5047778;28;20199;-69
2021/11/08 07:32:57;;;;;;;26.00;18.70;;;10.50;99.90;;;;;;5048647;28;20590;-69
2021/11/08 07:35:26;;;;;;;26.20;16.88;;;10.50;99.90;;;;;;5044624;28;20210;-70
2021/11/08 07:37:53;;;;;;;25.60;17.80;;;10.50;99.90;;;;;;5040103;28;20324;-71
2021/11/08 07:40:20;;;;;;;24.02;17.98;;;10.50;99.90;;;;;;5030664;28;20198;-69
2021/11/08 07:42:48;;;;;;;24.30;17.98;;;10.50;99.90;;;;;;5047478;28;20528;-69
2021/11/08 07:45:19;;;;;;;23.45;16.45;;;10.50;99.90;;;;;;5050921;28;20194;-70
2021/11/08 07:47:45;;;;;;;21.40;15.63;;;10.50;99.90;;;;;;5050978;28;20174;-69
2021/11/08 07:50:17;;;;;;;22.43;15.17;;;10.50;99.90;;;;;;5049709;28;20189;-70
2021/11/08 07:52:43;;;;;;;20.02;13.70;;;10.50;99.90;;;;;;5043931;28;20315;-69
2021/11/08 07:55:10;;;;;;;20.55;13.45;;;10.40;99.90;;;;;;5042606;28;20221;-69
2021/11/08 07:57:39;;;;;;;17.73;13.15;;;10.40;99.90;;;;;;5048069;28;20588;-70
2021/11/08 08:00:10;;;;;;;17.42;12.32;;;10.40;99.90;;;;;;5044839;28;20752;-69
2021/11/08 08:02:37;;;;;;;16.05;12.73;;;10.40;99.90;;;;;;5048291;28;20193;-70
2021/11/08 08:05:04;;;;;;;17.15;13.10;;;10.40;99.90;;;;;;5035017;28;20220;-70
2021/11/08 08:07:30;;;;;;;16.00;11.32;;;10.40;99.90;;;;;;5039573;28;20630;-70
2021/11/08 08:09:58;;;;;;;13.57;10.10;;;10.40;99.90;;;;;;5046262;28;20284;-69
2021/11/08 08:12:25;;;;;;;18.15;13.32;;;10.40;99.90;;;;;;5042966;28;20446;-69
2021/11/08 08:14:51;;;;;;;15.98;11.82;;;10.40;99.90;;;;;;5042666;28;20209;-70
2021/11/08 08:17:17;;;;;;;22.52;16.25;;;10.40;99.90;;;;;;5051644;28;20221;-70
2021/11/08 08:19:45;;;;;;;19.80;14.07;;;10.40;99.90;;;;;;5051100;28;20270;-70
2021/11/08 08:22:15;;;;;;;16.45;12.43;;;10.40;99.90;;;;;;5038430;28;20308;-70
2021/11/08 08:24:41;;;;;;;16.38;11.25;;;10.40;99.90;;;;;;5050343;28;20194;-70
2021/11/08 08:27:08;;;;;;;15.73;10.95;;;10.50;99.90;;;;;;5050080;28;20194;-70
2021/11/08 08:29:35;;;;;;;16.90;11.15;;;10.50;99.90;;;;;;5050820;28;20193;-70
2021/11/08 08:32:09;;;;;;;15.27;11.18;;;10.50;99.90;;;;;;5049340;28;20182;-70
2021/11/08 08:34:35;;;;;;;15.52;11.82;;;10.50;99.90;;;;;;5040415;28;20691;-70
2021/11/08 08:37:01;;;;;;;18.48;13.27;;;10.50;99.90;;;;;;5030090;28;20296;-71
2021/11/08 08:39:27;;;;;;;13.53;10.83;;;10.50;99.90;;;;;;5031517;28;20565;-71
2021/11/08 08:41:57;;;;;;;13.40;10.00;;;10.50;99.90;;;;;;5030106;28;20489;-70
2021/11/08 08:44:29;;;;;;;13.18;10.10;;;10.50;99.90;;;;;;5023895;28;20443;-71
2021/11/08 08:46:55;;;;;;;17.92;11.25;;;10.50;99.90;;;;;;5030737;28;20183;-70
2021/11/08 08:49:22;;;;;;;14.15;10.82;;;10.50;99.90;;;;;;5024822;28;20301;-70
2021/11/08 08:51:50;;;;;;;14.85;10.57;;;10.50;99.90;;;;;;5023129;28;20298;-71
2021/11/08 08:54:16;;;;;;;13.80;10.45;;;10.50;99.90;;;;;;5041577;28;20206;-71
2021/11/08 08:56:44;;;;;;;15.55;11.45;;;10.50;99.90;;;;;;5024428;28;20217;-70
2021/11/08 08:59:11;;;;;;;15.77;10.98;;;10.50;99.90;;;;;;5034824;28;20187;-70
2021/11/08 09:01:38;;;;;;;18.65;10.88;;;10.60;99.90;;;;;;5039097;28;20178;-71
2021/11/08 09:04:06;;;;;;;17.58;12.13;;;10.60;99.90;;;;;;5010432;28;20202;-70
2021/11/08 09:06:36;;;;;;;14.82;11.45;;;10.60;99.90;;;;;;5018863;28;20187;-71
2021/11/08 09:09:03;;;;;;;16.08;11.68;;;10.60;99.90;;;;;;5035051;28;20649;-72
2021/11/08 09:11:29;;;;;;;15.00;11.05;;;10.60;99.90;;;;;;5023004;28;20301;-71
2021/11/08 09:14:01;;;;;;;14.80;11.60;;;10.60;99.90;;;;;;5035759;28;20270;-71
2021/11/08 09:16:34;;;;;;;15.48;11.60;;;10.60;99.90;;;;;;5033815;28;20342;-71
2021/11/08 09:19:07;;;;;;;17.30;12.45;;;10.60;99.90;;;;;;5028413;28;20204;-70
2021/11/08 09:21:35;;;;;;;18.15;11.90;;;10.60;99.90;;;;;;5041793;28;20528;-70
2021/11/08 09:24:04;;;;;;;20.42;12.25;;;10.60;99.90;;;;;;5027619;28;20202;-71
2021/11/08 09:26:33;;;;;;;15.93;11.90;;;10.60;99.90;;;;;;5034644;28;20278;-71
2021/11/08 09:29:14;;;;;;;17.83;11.85;;;10.60;99.90;;;;;;5027529;28;20193;-71
2021/11/08 09:31:40;;;;;;;14.45;10.93;;;10.60;99.90;;;;;;5031964;28;20183;-71
2021/11/08 09:34:13;;;;;;;12.27;10.50;;;10.60;99.90;;;;;;5039580;28;20205;-71
2021/11/08 09:36:42;;;;;;;15.05;11.30;;;10.50;99.90;;;;;;5037677;28;20516;-70
2021/11/08 09:39:22;;;;;;;16.58;11.85;;;10.50;99.90;;;;;;5042175;28;20772;-71
2021/11/08 09:41:50;;;;;;;15.75;11.68;;;10.50;99.90;;;;;;5035336;28;20469;-71
2021/11/08 09:44:17;;;;;;;12.52;9.98;;;10.50;99.90;;;;;;5030932;28;20694;-70
2021/11/08 09:46:51;;;;;;;16.30;11.52;;;10.50;99.90;;;;;;5022398;28;20795;-71
2021/11/08 09:49:18;;;;;;;15.20;11.45;;;10.50;99.90;;;;;;5020016;28;20206;-71
2021/11/08 09:51:46;;;;;;;15.00;11.43;;;10.50;99.90;;;;;;5020944;28;20227;-71
2021/11/08 09:54:13;;;;;;;16.40;11.93;;;10.50;99.90;;;;;;5025893;28;20207;-70
2021/11/08 09:56:41;;;;;;;15.13;10.15;;;10.50;99.90;;;;;;5043057;28;20255;-71
2021/11/08 09:59:18;;;;;;;13.02;10.82;;;10.50;99.90;;;;;;5048242;28;20194;-70
2021/11/08 10:01:46;;;;;;;14.45;11.20;;;10.50;99.90;;;;;;5046037;28;20185;-70
2021/11/08 10:04:14;;;;;;;13.55;9.98;;;10.50;99.90;;;;;;5035262;28;20607;-70
2021/11/08 10:06:42;;;;;;;14.85;10.25;;;10.50;99.90;;;;;;5041516;28;20558;-70
2021/11/08 10:09:10;;;;;;;16.63;11.27;;;10.50;99.90;;;;;;5046001;28;20186;-70
2021/11/08 10:11:41;;;;;;;15.73;10.90;;;10.60;99.90;;;;;;5038468;28;20579;-71
2021/11/08 10:14:08;;;;;;;16.30;10.95;;;10.60;99.90;;;;;;5048627;28;20191;-70
2021/11/08 10:16:37;;;;;;;12.90;10.27;;;10.60;99.90;;;;;;5040844;28;20217;-70
2021/11/08 10:19:12;;;;;;;13.70;11.10;;;10.60;99.90;;;;;;5051528;28;20182;-70
2021/11/08 10:21:49;;;;;;;13.52;10.95;;;10.60;99.90;;;;;;5050530;28;20624;-71
2021/11/08 10:24:21;;;;;;;12.82;10.15;;;10.70;99.90;;;;;;5040863;28;20762;-70
2021/11/08 10:30:04;;;;;;;15.05;10.60;;;10.70;99.90;;;;;;5362471;23;20238;-70
2021/11/08 10:32:33;;;;;;;14.40;10.32;;;10.80;99.90;;;;;;5013715;28;20211;-69
2021/11/08 10:34:59;;;;;;;12.70;9.63;;;10.80;99.90;;;;;;5016047;28;20213;-70
2021/11/08 10:37:30;;;;;;;13.77;10.70;;;10.80;99.90;;;;;;5023300;28;20665;-69
2021/11/08 10:39:58;;;;;;;13.60;10.40;;;10.80;99.90;;;;;;5009446;28;20214;-70
2021/11/08 10:42:27;;;;;;;12.05;10.05;;;10.80;99.90;;;;;;5005088;28;20187;-69
2021/11/08 10:44:55;;;;;;;11.32;9.23;;;10.90;99.90;;;;;;5008008;28;20570;-70
2021/11/08 10:47:28;;;;;;;11.80;9.57;;;10.90;99.90;;;;;;5004384;28;20654;-70
2021/11/08 10:49:56;;;;;;;12.32;9.23;;;10.90;99.90;;;;;;5016064;28;20688;-71
2021/11/08 10:52:29;;;;;;;11.20;8.32;;;10.90;99.90;;;;;;5017522;28;20720;-70
2021/11/08 10:54:57;;;;;;;13.55;9.32;;;10.90;99.90;;;;;;5008597;28;20767;-70
2021/11/08 10:57:26;;;;;;;9.70;8.50;;;11.00;99.90;;;;;;5016027;28;20649;-70
2021/11/08 10:59:55;;;;;;;10.65;8.15;;;11.00;99.90;;;;;;5023886;28;20204;-70
2021/11/08 11:02:25;;;;;;;8.70;7.78;;;11.10;99.90;;;;;;5015236;28;20560;-70
2021/11/08 11:04:58;;;;;;;10.82;7.60;;;11.10;99.90;;;;;;5010789;28;20199;-70
2021/11/08 11:07:27;;;;;;;9.40;7.60;;;11.10;99.90;;;;;;4994781;28;20188;-70
2021/11/08 11:10:24;;;;;;;8.00;6.50;;;11.10;99.90;;;;;;5017635;28;20941;-70
2021/11/08 11:12:51;;;;;;;8.75;7.38;;;11.10;99.90;;;;;;5026843;28;20178;-70
2021/11/08 11:15:32;;;;;;;7.18;6.47;;;11.20;99.90;;;;;;5010569;28;20210;-71
2021/11/08 11:17:59;;;;;;;9.13;6.40;;;11.20;99.90;;;;;;5021835;28;20223;-70
2021/11/08 11:20:34;;;;;;;6.47;4.80;;;11.20;99.90;;;;;;5002874;28;20203;-70
2021/11/08 11:23:21;;;;;;;7.30;5.50;;;11.20;99.90;;;;;;5002813;28;20265;-71
2021/11/08 11:25:52;;;;;;;6.80;5.55;;;11.20;99.90;;;;;;5019435;28;20217;-71
2021/11/08 11:28:36;;;;;;;7.90;6.07;;;11.20;99.90;;;;;;5017926;28;20184;-70
2021/11/08 11:31:25;;;;;;;9.82;4.50;;;11.20;99.90;;;;;;5017268;28;20630;-70
2021/11/08 11:34:15;;;;;;;6.15;4.40;;;11.20;99.90;;;;;;5010062;28;20184;-70
2021/11/08 11:36:43;;;;;;;5.50;4.18;;;11.20;99.90;;;;;;5007673;28;20214;-70
2021/11/08 11:39:20;;;;;;;4.75;4.05;;;11.20;99.90;;;;;;5003701;28;20566;-70
2021/11/08 11:41:49;;;;;;;4.03;3.63;;;11.20;99.90;;;;;;5008540;28;20195;-70
2021/11/08 11:44:24;;;;;;;4.90;4.00;;;11.20;99.90;;;;;;5004941;28;20243;-74
2021/11/08 11:46:56;;;;;;;4.97;3.83;;;11.20;99.90;;;;;;5007027;28;20187;-71
2021/11/08 11:49:23;;;;;;;6.07;4.28;;;11.30;99.90;;;;;;5010853;28;20202;-71
2021/11/08 11:52:00;;;;;;;4.47;4.07;;;11.30;99.90;;;;;;5012027;28;20183;-71
2021/11/08 11:54:30;;;;;;;5.47;3.67;;;11.30;99.90;;;;;;5012047;28;20787;-71
2021/11/08 11:57:01;;;;;;;4.40;3.27;;;11.30;99.90;;;;;;5022323;28;20743;-69
2021/11/08 11:59:28;;;;;;;3.88;3.20;;;11.30;99.90;;;;;;5006367;28;20443;-70
2021/11/08 12:01:54;;;;;;;5.95;3.38;;;11.30;99.90;;;;;;5001163;28;20193;-70
2021/11/08 12:04:21;;;;;;;4.55;2.97;;;11.30;99.90;;;;;;5000421;28;20215;-71
2021/11/08 12:06:53;;;;;;;7.88;4.75;;;11.30;99.90;;;;;;5006919;28;20183;-70
2021/11/08 12:09:30;;;;;;;10.88;6.35;;;11.30;99.90;;;;;;5015224;28;20529;-69
2021/11/08 12:12:47;;;;;;;10.48;6.30;;;11.30;99.90;;;;;;5020912;28;20269;-70
2021/11/08 12:15:33;;;;;;;6.95;5.85;;;11.30;99.90;;;;;;5115949;23;21072;-69
2021/11/08 12:18:09;;;;;;;6.83;5.70;;;11.30;99.90;;;;;;5037234;28;20209;-68
2021/11/08 12:20:47;;;;;;;7.47;6.68;;;11.30;99.90;;;;;;5029956;28;20533;-69
2021/11/08 12:23:27;;;;;;;8.60;6.78;;;11.20;99.90;;;;;;5038760;28;20177;-69
2021/11/08 12:25:53;;;;;;;7.15;6.00;;;11.20;99.90;;;;;;5039016;28;20237;-69
2021/11/08 12:28:27;;;;;;;7.80;6.35;;;11.20;99.90;;;;;;5027481;28;20678;-69
2021/11/08 12:31:00;;;;;;;10.68;6.53;;;11.20;99.90;;;;;;5027794;28;20256;-69
2021/11/08 12:33:32;;;;;;;8.55;7.25;;;11.20;99.90;;;;;;5030328;28;20179;-70
2021/11/08 12:36:11;;;;;;;7.55;6.35;;;11.20;99.90;;;;;;5024685;28;20229;-69
2021/11/08 12:38:43;;;;;;;7.60;6.88;;;11.20;99.90;;;;;;5025853;28;20182;-69
2021/11/08 12:41:12;;;;;;;8.50;7.20;;;11.20;99.90;;;;;;5027668;28;20206;-70
2021/11/08 12:43:50;;;;;;;9.40;7.60;;;11.20;99.90;;;;;;5026810;28;20174;-69
2021/11/08 12:46:37;;;;;;;9.77;7.38;;;11.20;99.90;;;;;;5036509;28;20691;-69
2021/11/08 12:49:22;;;;;;;8.80;7.32;;;11.30;99.90;;;;;;5026713;28;20213;-70
2021/11/08 12:52:00;;;;;;;9.90;7.95;;;11.20;99.90;;;;;;5028086;28;20190;-70
2021/11/08 12:54:30;;;;;;;9.82;8.07;;;11.20;99.90;;;;;;5029041;28;20569;-70
2021/11/08 12:57:10;;;;;;;10.38;7.65;;;11.20;99.90;;;;;;5026485;28;20297;-70
2021/11/08 12:59:44;;;;;;;8.93;7.90;;;11.20;99.90;;;;;;5030547;28;20229;-70
2021/11/08 13:02:23;;;;;;;10.88;8.70;;;11.20;99.90;;;;;;5029893;28;20182;-69
2021/11/08 13:05:01;;;;;;;12.02;8.50;;;11.20;99.90;;;;;;5024120;28;20332;-70
2021/11/08 13:07:37;;;;;;;10.10;7.43;;;11.20;99.90;;;;;;5028200;28;20174;-70
2021/11/08 13:10:25;;;;;;;10.77;9.02;;;11.20;99.90;;;;;;5030055;28;20206;-70
2021/11/08 13:12:53;;;;;;;13.25;9.70;;;11.20;99.90;;;;;;5034259;28;20220;-69
2021/11/08 13:15:29;;;;;;;10.82;8.70;;;11.20;99.90;;;;;;5031314;28;20238;-69
2021/11/08 13:18:14;;;;;;;10.45;8.40;;;11.20;99.90;;;;;;5039127;28;20225;-70
2021/11/08 13:20:44;;;;;;;12.32;8.63;;;11.20;99.90;;;;;;5042191;28;20568;-70
2021/11/08 13:23:20;;;;;;;13.82;9.65;;;11.20;99.90;;;;;;5048841;28;20254;-70
2021/11/08 13:25:45;;;;;;;10.63;9.00;;;11.20;99.90;;;;;;5026702;28;20228;-70
2021/11/08 13:28:44;;;;;;;10.50;8.60;;;11.20;99.90;;;;;;5031068;28;20179;-70
2021/11/08 13:31:15;;;;;;;12.23;9.10;;;11.20;99.90;;;;;;5021184;28;20274;-69
2021/11/08 13:33:52;;;;;;;13.50;10.13;;;11.20;99.90;;;;;;5029227;28;20183;-70
2021/11/08 13:36:19;;;;;;;14.95;11.18;;;11.20;99.90;;;;;;5028813;28;20202;-70
2021/11/08 13:38:56;;;;;;;11.55;10.35;;;11.20;99.90;;;;;;5031820;28;20592;-70
2021/11/08 13:41:30;;;;;;;9.88;8.80;;;11.30;99.90;;;;;;5048083;28;20612;-70
2021/11/08 13:43:57;;;;;;;11.13;7.90;;;11.30;99.90;;;;;;5035177;28;20546;-70
2021/11/08 13:46:24;;;;;;;13.75;10.13;;;11.30;99.90;;;;;;5034330;28;20186;-69
2021/11/08 13:49:13;;;;;;;10.13;8.43;;;11.30;99.90;;;;;;5045590;28;20174;-69
2021/11/08 13:51:57;;;;;;;11.63;9.93;;;11.30;99.90;;;;;;5048478;28;20182;-69
2021/11/08 13:54:42;;;;;;;12.50;9.35;;;11.30;99.90;;;;;;5030552;28;20206;-70
2021/11/08 13:57:18;;;;;;;10.20;9.05;;;11.30;99.90;;;;;;5033886;28;20214;-70
2021/11/08 13:59:47;;;;;;;12.32;10.30;;;11.30;99.90;;;;;;5034327;28;20203;-69
2021/11/08 14:02:17;;;;;;;10.45;7.68;;;11.30;99.90;;;;;;5048645;28;20181;-69
2021/11/08 14:04:51;;;;;;;10.35;8.35;;;11.30;99.90;;;;;;5021266;28;20246;-69
2021/11/08 14:07:22;;;;;;;9.80;7.95;;;11.30;99.90;;;;;;5029024;28;20550;-70
2021/11/08 14:09:49;;;;;;;12.27;9.02;;;11.30;99.90;;;;;;5040178;28;20214;-69
2021/11/08 14:12:21;;;;;;;13.40;8.68;;;11.30;99.90;;;;;;5031887;28;20184;-70
2021/11/08 14:14:48;;;;;;;10.73;8.70;;;11.30;99.90;;;;;;5032033;28;20234;-70
2021/11/08 14:17:24;;;;;;;12.57;9.15;;;11.30;99.90;;;;;;5037298;28;20578;-70
2021/11/08 14:20:11;;;;;;;11.85;8.18;;;11.30;99.90;;;;;;5024750;28;20319;-70
2021/11/08 14:22:44;;;;;;;13.75;8.55;;;11.30;99.90;;;;;;5016970;28;20179;-70
2021/11/08 14:25:13;;;;;;;10.48;8.50;;;11.30;99.90;;;;;;5008710;28;20206;-70
2021/11/08 14:27:42;;;;;;;8.43;7.43;;;11.30;99.90;;;;;;5031131;28;20532;-71
2021/11/08 14:30:17;;;;;;;9.13;7.88;;;11.30;99.90;;;;;;5031900;28;20206;-70
2021/11/08 14:32:46;;;;;;;13.00;8.77;;;11.30;99.90;;;;;;5028774;28;20659;-69
2021/11/08 14:35:16;;;;;;;14.20;11.07;;;11.30;99.90;;;;;;5047229;28;20211;-70
2021/11/08 14:37:46;;;;;;;14.00;9.88;;;11.30;99.90;;;;;;5035109;28;20213;-70